sensor_id;sensor_type;location;lat;lon;timestamp;pressure;altitude;pressure_sealevel;temperature;humidity
55755;BME280;41674;52.290;-1.474;2022-10-16T00:01:28;99686.68;;;8.33;100.00
55755;BME280;41674;52.290;-1.474;2022-10-16T00:04:01;99698.12;;;8.02;100.00
55755;BME280;41674;52.290;-1.474;2022-10-16T00:08:50;99689.71;;;8.36;100.00
55755;BME280;41674;52.290;-1.474;2022-10-16T00:11:21;99692.91;;;8.72;100.00
55755;BME280;41674;52.290;-1.474;2022-10-16T00:13:51;99689.00;;;9.52;99.97
55755;BME280;41674;52.290;-1.474;2022-10-16T00:16:19;99694.04;;;9.28;99.61
55755;BME280;41674;52.290;-1.474;2022-10-16T00:18:48;99683.51;;;8.85;100.00
55755;BME280;41674;52.290;-1.474;2022-10-16T00:21:25;99688.58;;;8.63;100.00
55755;BME280;41674;52.290;-1.474;2022-10-16T00:23:50;99693.60;;;9.43;97.66
55755;BME280;41674;52.290;-1.474;2022-10-16T00:26:23;99699.11;;;8.53;100.00
55755;BME280;41674;52.290;-1.474;2022-10-16T00:28:48;99698.00;;;9.01;99.82
55755;BME280;41674;52.290;-1.474;2022-10-16T00:31:18;99707.68;;;8.89;100.00
55755;BME280;41674;52.290;-1.474;2022-10-16T00:33:46;99707.30;;;8.79;100.00
55755;BME280;41674;52.290;-1.474;2022-10-16T00:36:18;99702.39;;;9.28;98.87
55755;BME280;41674;52.290;-1.474;2022-10-16T00:38:46;99700.36;;;9.27;98.30
55755;BME280;41674;52.290;-1.474;2022-10-16T00:41:16;99701.50;;;9.02;98.47
55755;BME280;41674;52.290;-1.474;2022-10-16T00:43:46;99702.77;;;8.81;99.36
55755;BME280;41674;52.290;-1.474;2022-10-16T00:46:23;99710.70;;;8.71;100.00
55755;BME280;41674;52.290;-1.474;2022-10-16T00:48:49;99707.15;;;9.03;100.00
55755;BME280;41674;52.290;-1.474;2022-10-16T00:51:14;99708.25;;;8.57;100.00
55755;BME280;41674;52.290;-1.474;2022-10-16T00:53:44;99709.02;;;8.34;100.00
55755;BME280;41674;52.290;-1.474;2022-10-16T00:56:13;99716.76;;;8.76;100.00
55755;BME280;41674;52.290;-1.474;2022-10-16T00:58:43;99714.17;;;8.69;100.00
55755;BME280;41674;52.290;-1.474;2022-10-16T01:01:12;99718.53;;;8.44;100.00
55755;BME280;41674;52.290;-1.474;2022-10-16T01:03:41;99724.99;;;9.22;100.00
55755;BME280;41674;52.290;-1.474;2022-10-16T01:06:21;99725.30;;;8.12;100.00
55755;BME280;41674;52.290;-1.474;2022-10-16T01:08:48;99731.82;;;8.60;100.00
55755;BME280;41674;52.290;-1.474;2022-10-16T01:11:17;99730.49;;;8.88;100.00
55755;BME280;41674;52.290;-1.474;2022-10-16T01:13:44;99734.81;;;8.56;100.00
55755;BME280;41674;52.290;-1.474;2022-10-16T01:16:12;99740.37;;;8.98;100.00
55755;BME280;41674;52.290;-1.474;2022-10-16T01:18:43;99745.83;;;9.00;100.00
55755;BME280;41674;52.290;-1.474;2022-10-16T01:21:11;99747.30;;;9.44;97.11
55755;BME280;41674;52.290;-1.474;2022-10-16T01:23:46;99750.23;;;9.70;96.60
55755;BME280;41674;52.290;-1.474;2022-10-16T01:26:16;99750.74;;;9.85;96.13
55755;BME280;41674;52.290;-1.474;2022-10-16T01:28:41;99757.17;;;9.75;96.34
55755;BME280;41674;52.290;-1.474;2022-10-16T01:31:09;99761.65;;;9.69;95.79
55755;BME280;41674;52.290;-1.474;2022-10-16T01:33:42;99759.49;;;9.56;95.70
55755;BME280;41674;52.290;-1.474;2022-10-16T01:36:11;99753.37;;;9.44;95.68
55755;BME280;41674;52.290;-1.474;2022-10-16T01:38:38;99764.40;;;9.18;97.21
55755;BME280;41674;52.290;-1.474;2022-10-16T01:41:10;99760.98;;;9.77;95.28
55755;BME280;41674;52.290;-1.474;2022-10-16T01:43:38;99768.27;;;9.39;97.58
55755;BME280;41674;52.290;-1.474;2022-10-16T01:46:05;99782.21;;;9.01;98.28
55755;BME280;41674;52.290;-1.474;2022-10-16T01:48:35;99780.73;;;9.57;96.75
55755;BME280;41674;52.290;-1.474;2022-10-16T01:51:08;99784.05;;;9.88;93.44
55755;BME280;41674;52.290;-1.474;2022-10-16T01:53:34;99785.22;;;8.95;96.14
55755;BME280;41674;52.290;-1.474;2022-10-16T01:56:06;99788.85;;;8.93;96.77
55755;BME280;41674;52.290;-1.474;2022-10-16T01:58:44;99796.62;;;9.01;96.61
55755;BME280;41674;52.290;-1.474;2022-10-16T02:01:04;99800.16;;;9.21;95.58
55755;BME280;41674;52.290;-1.474;2022-10-16T02:03:34;99807.11;;;8.88;95.78
55755;BME280;41674;52.290;-1.474;2022-10-16T02:06:02;99801.03;;;8.96;95.93
55755;BME280;41674;52.290;-1.474;2022-10-16T02:08:31;99803.97;;;9.10;94.87
55755;BME280;41674;52.290;-1.474;2022-10-16T02:11:01;99809.50;;;8.69;96.36
55755;BME280;41674;52.290;-1.474;2022-10-16T02:13:34;99810.77;;;8.76;95.89
55755;BME280;41674;52.290;-1.474;2022-10-16T02:16:00;99819.46;;;9.03;96.07
55755;BME280;41674;52.290;-1.474;2022-10-16T02:18:31;99821.71;;;8.81;96.57
55755;BME280;41674;52.290;-1.474;2022-10-16T02:21:02;99833.46;;;9.03;95.51
55755;BME280;41674;52.290;-1.474;2022-10-16T02:23:35;99837.83;;;9.15;96.29
55755;BME280;41674;52.290;-1.474;2022-10-16T02:26:00;99844.70;;;9.14;95.57
55755;BME280;41674;52.290;-1.474;2022-10-16T02:28:33;99847.32;;;8.84;97.02
55755;BME280;41674;52.290;-1.474;2022-10-16T02:31:01;99848.62;;;8.55;100.00
55755;BME280;41674;52.290;-1.474;2022-10-16T02:33:28;99852.07;;;8.25;100.00
55755;BME280;41674;52.290;-1.474;2022-10-16T02:35:58;99855.23;;;8.94;97.94
55755;BME280;41674;52.290;-1.474;2022-10-16T02:38:27;99858.18;;;8.46;99.03
55755;BME280;41674;52.290;-1.474;2022-10-16T02:40:57;99855.74;;;8.55;99.54
55755;BME280;41674;52.290;-1.474;2022-10-16T02:45:56;99857.36;;;9.30;97.30
55755;BME280;41674;52.290;-1.474;2022-10-16T02:48:25;99857.99;;;8.96;97.77
55755;BME280;41674;52.290;-1.474;2022-10-16T02:50:55;99861.60;;;8.84;98.82
55755;BME280;41674;52.290;-1.474;2022-10-16T02:53:25;99870.12;;;8.88;99.44
55755;BME280;41674;52.290;-1.474;2022-10-16T02:55:55;99866.41;;;8.58;100.00
55755;BME280;41674;52.290;-1.474;2022-10-16T02:58:24;99869.73;;;8.70;100.00
55755;BME280;41674;52.290;-1.474;2022-10-16T03:00:55;99875.32;;;8.50;100.00
55755;BME280;41674;52.290;-1.474;2022-10-16T03:03:23;99876.90;;;8.45;100.00
55755;BME280;41674;52.290;-1.474;2022-10-16T03:05:53;99881.69;;;9.07;100.00
55755;BME280;41674;52.290;-1.474;2022-10-16T03:08:23;99888.37;;;8.78;100.00
55755;BME280;41674;52.290;-1.474;2022-10-16T03:10:52;99893.48;;;8.38;100.00
55755;BME280;41674;52.290;-1.474;2022-10-16T03:13:22;99887.91;;;8.68;100.00
55755;BME280;41674;52.290;-1.474;2022-10-16T03:15:51;99892.56;;;8.24;100.00
55755;BME280;41674;52.290;-1.474;2022-10-16T03:18:22;99899.10;;;8.87;100.00
55755;BME280;41674;52.290;-1.474;2022-10-16T03:20:51;99909.62;;;9.31;100.00
55755;BME280;41674;52.290;-1.474;2022-10-16T03:25:50;99916.17;;;8.83;99.71
55755;BME280;41674;52.290;-1.474;2022-10-16T03:28:20;99918.18;;;9.07;99.36
55755;BME280;41674;52.290;-1.474;2022-10-16T03:30:49;99920.07;;;9.84;96.44
55755;BME280;41674;52.290;-1.474;2022-10-16T03:33:20;99932.99;;;9.38;98.80
55755;BME280;41674;52.290;-1.474;2022-10-16T03:35:55;99937.13;;;9.04;100.00
55755;BME280;41674;52.290;-1.474;2022-10-16T03:38:18;99934.08;;;9.74;99.88
55755;BME280;41674;52.290;-1.474;2022-10-16T03:40:48;99936.90;;;8.65;100.00
55755;BME280;41674;52.290;-1.474;2022-10-16T03:43:17;99941.14;;;8.59;100.00
55755;BME280;41674;52.290;-1.474;2022-10-16T03:45:49;99946.27;;;9.38;100.00
55755;BME280;41674;52.290;-1.474;2022-10-16T03:48:17;99947.47;;;8.90;100.00
55755;BME280;41674;52.290;-1.474;2022-10-16T03:50:46;99954.11;;;9.64;97.74
55755;BME280;41674;52.290;-1.474;2022-10-16T03:53:16;99957.25;;;9.46;99.90
55755;BME280;41674;52.290;-1.474;2022-10-16T03:55:46;99960.46;;;9.51;100.00
55755;BME280;41674;52.290;-1.474;2022-10-16T03:58:15;99970.50;;;9.58;100.00
55755;BME280;41674;52.290;-1.474;2022-10-16T04:00:45;99975.01;;;8.95;100.00
55755;BME280;41674;52.290;-1.474;2022-10-16T04:03:15;99979.81;;;9.17;100.00
55755;BME280;41674;52.290;-1.474;2022-10-16T04:05:44;99981.27;;;8.98;100.00
55755;BME280;41674;52.290;-1.474;2022-10-16T04:08:14;99983.42;;;9.36;100.00
55755;BME280;41674;52.290;-1.474;2022-10-16T04:10:43;99989.61;;;8.88;100.00
55755;BME280;41674;52.290;-1.474;2022-10-16T04:13:14;99996.77;;;9.57;100.00
55755;BME280;41674;52.290;-1.474;2022-10-16T04:15:42;99995.07;;;9.08;100.00
55755;BME280;41674;52.290;-1.474;2022-10-16T04:18:12;100001.96;;;9.13;100.00
55755;BME280;41674;52.290;-1.474;2022-10-16T04:20:41;100011.22;;;10.35;99.31
55755;BME280;41674;52.290;-1.474;2022-10-16T04:23:11;100016.96;;;9.73;97.33
55755;BME280;41674;52.290;-1.474;2022-10-16T04:25:41;100022.57;;;9.33;99.47
55755;BME280;41674;52.290;-1.474;2022-10-16T04:28:10;100032.56;;;9.80;99.10
55755;BME280;41674;52.290;-1.474;2022-10-16T04:30:40;100040.13;;;10.20;96.18
55755;BME280;41674;52.290;-1.474;2022-10-16T04:33:09;100049.88;;;10.07;94.96
55755;BME280;41674;52.290;-1.474;2022-10-16T04:35:39;100048.51;;;9.85;96.94
55755;BME280;41674;52.290;-1.474;2022-10-16T04:38:08;100047.64;;;9.49;98.54
55755;BME280;41674;52.290;-1.474;2022-10-16T04:40:38;100054.33;;;9.36;99.86
55755;BME280;41674;52.290;-1.474;2022-10-16T04:43:09;100060.48;;;9.59;98.78
55755;BME280;41674;52.290;-1.474;2022-10-16T04:45:37;100063.72;;;9.58;97.79
55755;BME280;41674;52.290;-1.474;2022-10-16T04:48:07;100068.48;;;9.48;98.70
55755;BME280;41674;52.290;-1.474;2022-10-16T04:50:36;100074.43;;;9.66;98.27
55755;BME280;41674;52.290;-1.474;2022-10-16T04:53:06;100078.17;;;10.10;96.13
55755;BME280;41674;52.290;-1.474;2022-10-16T04:55:37;100082.43;;;9.99;96.69
55755;BME280;41674;52.290;-1.474;2022-10-16T04:58:06;100081.21;;;10.00;95.91
55755;BME280;41674;52.290;-1.474;2022-10-16T05:00:35;100084.43;;;10.20;96.09
55755;BME280;41674;52.290;-1.474;2022-10-16T05:03:04;100093.90;;;9.96;96.00
55755;BME280;41674;52.290;-1.474;2022-10-16T05:05:34;100098.72;;;9.65;96.97
55755;BME280;41674;52.290;-1.474;2022-10-16T05:08:04;100112.16;;;9.27;98.94
55755;BME280;41674;52.290;-1.474;2022-10-16T05:10:34;100113.95;;;9.54;97.50
55755;BME280;41674;52.290;-1.474;2022-10-16T05:13:03;100119.21;;;9.63;97.12
55755;BME280;41674;52.290;-1.474;2022-10-16T05:15:32;100126.88;;;9.53;97.85
55755;BME280;41674;52.290;-1.474;2022-10-16T05:18:02;100133.06;;;9.72;95.57
55755;BME280;41674;52.290;-1.474;2022-10-16T05:20:32;100136.89;;;10.04;92.84
55755;BME280;41674;52.290;-1.474;2022-10-16T05:23:01;100141.15;;;10.83;93.10
55755;BME280;41674;52.290;-1.474;2022-10-16T05:25:31;100149.75;;;10.40;92.60
55755;BME280;41674;52.290;-1.474;2022-10-16T05:28:01;100155.08;;;11.18;89.32
55755;BME280;41674;52.290;-1.474;2022-10-16T05:30:30;100167.00;;;10.62;91.97
55755;BME280;41674;52.290;-1.474;2022-10-16T05:33:00;100176.48;;;10.91;89.34
55755;BME280;41674;52.290;-1.474;2022-10-16T05:35:29;100180.56;;;11.01;89.06
55755;BME280;41674;52.290;-1.474;2022-10-16T05:37:59;100183.92;;;11.15;88.19
55755;BME280;41674;52.290;-1.474;2022-10-16T05:40:28;100182.77;;;11.14;87.85
55755;BME280;41674;52.290;-1.474;2022-10-16T05:42:58;100189.42;;;11.07;87.85
55755;BME280;41674;52.290;-1.474;2022-10-16T05:45:28;100191.20;;;10.92;88.83
55755;BME280;41674;52.290;-1.474;2022-10-16T05:47:57;100191.31;;;11.27;87.17
55755;BME280;41674;52.290;-1.474;2022-10-16T05:50:27;100190.90;;;10.96;88.43
55755;BME280;41674;52.290;-1.474;2022-10-16T05:52:57;100189.62;;;10.68;88.45
55755;BME280;41674;52.290;-1.474;2022-10-16T05:55:26;100194.89;;;10.93;86.90
55755;BME280;41674;52.290;-1.474;2022-10-16T05:57:56;100197.82;;;11.54;87.20
55755;BME280;41674;52.290;-1.474;2022-10-16T06:00:25;100197.45;;;11.02;86.63
55755;BME280;41674;52.290;-1.474;2022-10-16T06:02:55;100199.59;;;10.73;88.27
55755;BME280;41674;52.290;-1.474;2022-10-16T06:07:54;100209.00;;;10.61;88.26
55755;BME280;41674;52.290;-1.474;2022-10-16T06:10:24;100216.09;;;10.55;89.18
55755;BME280;41674;52.290;-1.474;2022-10-16T06:12:54;100218.91;;;10.20;91.27
55755;BME280;41674;52.290;-1.474;2022-10-16T06:15:23;100222.46;;;10.43;90.09
55755;BME280;41674;52.290;-1.474;2022-10-16T06:17:53;100222.48;;;10.14;90.42
55755;BME280;41674;52.290;-1.474;2022-10-16T06:20:22;100229.48;;;10.04;91.17
55755;BME280;41674;52.290;-1.474;2022-10-16T06:22:52;100235.60;;;9.89;91.34
55755;BME280;41674;52.290;-1.474;2022-10-16T06:25:27;100238.79;;;10.18;90.71
55755;BME280;41674;52.290;-1.474;2022-10-16T06:27:51;100243.82;;;10.87;87.71
55755;BME280;41674;52.290;-1.474;2022-10-16T06:30:22;100249.24;;;10.60;88.42
55755;BME280;41674;52.290;-1.474;2022-10-16T06:32:50;100253.57;;;10.51;88.92
55755;BME280;41674;52.290;-1.474;2022-10-16T06:35:20;100258.79;;;10.44;89.45
55755;BME280;41674;52.290;-1.474;2022-10-16T06:37:50;100266.16;;;10.93;88.55
55755;BME280;41674;52.290;-1.474;2022-10-16T06:40:19;100279.19;;;10.24;89.97
55755;BME280;41674;52.290;-1.474;2022-10-16T06:45:18;100289.33;;;10.12;89.80
55755;BME280;41674;52.290;-1.474;2022-10-16T06:47:48;100294.00;;;10.15;90.15
55755;BME280;41674;52.290;-1.474;2022-10-16T06:50:18;100297.12;;;9.31;91.92
55755;BME280;41674;52.290;-1.474;2022-10-16T06:52:47;100299.93;;;9.72;89.78
55755;BME280;41674;52.290;-1.474;2022-10-16T06:55:17;100302.37;;;9.76;91.20
55755;BME280;41674;52.290;-1.474;2022-10-16T06:57:47;100297.61;;;10.28;89.23
55755;BME280;41674;52.290;-1.474;2022-10-16T07:00:16;100298.52;;;10.42;88.42
55755;BME280;41674;52.290;-1.474;2022-10-16T07:02:46;100303.63;;;10.58;87.84
55755;BME280;41674;52.290;-1.474;2022-10-16T07:05:15;100308.50;;;10.81;87.69
55755;BME280;41674;52.290;-1.474;2022-10-16T07:07:45;100310.28;;;9.16;91.39
55755;BME280;41674;52.290;-1.474;2022-10-16T07:10:14;100312.78;;;9.98;90.77
55755;BME280;41674;52.290;-1.474;2022-10-16T07:12:44;100318.05;;;10.73;87.56
55755;BME280;41674;52.290;-1.474;2022-10-16T07:15:15;100325.26;;;10.52;88.27
55755;BME280;41674;52.290;-1.474;2022-10-16T07:17:43;100324.63;;;10.90;86.97
55755;BME280;41674;52.290;-1.474;2022-10-16T07:20:13;100332.60;;;9.68;90.11
55755;BME280;41674;52.290;-1.474;2022-10-16T07:22:43;100337.75;;;10.08;89.96
55755;BME280;41674;52.290;-1.474;2022-10-16T07:25:12;100339.63;;;10.38;89.01
55755;BME280;41674;52.290;-1.474;2022-10-16T07:27:42;100337.61;;;10.30;87.55
55755;BME280;41674;52.290;-1.474;2022-10-16T07:30:11;100344.25;;;9.36;91.85
55755;BME280;41674;52.290;-1.474;2022-10-16T07:32:46;100351.48;;;10.38;88.06
55755;BME280;41674;52.290;-1.474;2022-10-16T07:35:11;100359.47;;;10.41;87.78
55755;BME280;41674;52.290;-1.474;2022-10-16T07:37:44;100363.88;;;10.03;89.15
55755;BME280;41674;52.290;-1.474;2022-10-16T07:40:10;100366.53;;;10.47;90.72
55755;BME280;41674;52.290;-1.474;2022-10-16T07:42:40;100370.91;;;10.67;91.27
55755;BME280;41674;52.290;-1.474;2022-10-16T07:45:10;100382.24;;;10.25;92.38
55755;BME280;41674;52.290;-1.474;2022-10-16T07:47:39;100384.94;;;10.33;91.96
55755;BME280;41674;52.290;-1.474;2022-10-16T07:50:09;100387.75;;;10.06;93.94
55755;BME280;41674;52.290;-1.474;2022-10-16T07:52:38;100391.32;;;10.24;93.31
55755;BME280;41674;52.290;-1.474;2022-10-16T07:55:08;100399.54;;;9.93;94.55
55755;BME280;41674;52.290;-1.474;2022-10-16T07:57:37;100409.36;;;10.91;91.77
55755;BME280;41674;52.290;-1.474;2022-10-16T08:00:08;100414.57;;;10.24;91.98
55755;BME280;41674;52.290;-1.474;2022-10-16T08:02:37;100417.86;;;9.99;92.08
55755;BME280;41674;52.290;-1.474;2022-10-16T08:05:07;100417.55;;;9.86;92.77
55755;BME280;41674;52.290;-1.474;2022-10-16T08:07:36;100421.13;;;10.57;91.90
55755;BME280;41674;52.290;-1.474;2022-10-16T08:10:06;100427.85;;;10.29;92.36
55755;BME280;41674;52.290;-1.474;2022-10-16T08:12:35;100430.22;;;9.59;93.86
55755;BME280;41674;52.290;-1.474;2022-10-16T08:15:06;100434.49;;;10.19;94.04
55755;BME280;41674;52.290;-1.474;2022-10-16T08:17:34;100443.64;;;9.31;96.39
55755;BME280;41674;52.290;-1.474;2022-10-16T08:20:05;100447.12;;;9.55;97.68
55755;BME280;41674;52.290;-1.474;2022-10-16T08:22:33;100442.97;;;10.63;93.50
55755;BME280;41674;52.290;-1.474;2022-10-16T08:25:03;100443.40;;;10.44;92.31
55755;BME280;41674;52.290;-1.474;2022-10-16T08:27:33;100450.96;;;10.15;93.59
55755;BME280;41674;52.290;-1.474;2022-10-16T08:30:09;100455.44;;;10.56;92.27
55755;BME280;41674;52.290;-1.474;2022-10-16T08:32:37;100461.59;;;10.64;91.40
55755;BME280;41674;52.290;-1.474;2022-10-16T08:35:02;100467.20;;;10.04;95.03
55755;BME280;41674;52.290;-1.474;2022-10-16T08:37:31;100467.87;;;10.46;93.88
55755;BME280;41674;52.290;-1.474;2022-10-16T08:40:01;100468.16;;;10.01;94.93
55755;BME280;41674;52.290;-1.474;2022-10-16T08:42:42;100471.48;;;9.60;96.41
55755;BME280;41674;52.290;-1.474;2022-10-16T08:45:15;100472.69;;;9.78;97.44
55755;BME280;41674;52.290;-1.474;2022-10-16T08:47:41;100476.82;;;10.43;94.43
55755;BME280;41674;52.290;-1.474;2022-10-16T08:50:02;100480.77;;;9.94;95.62
55755;BME280;41674;52.290;-1.474;2022-10-16T08:52:30;100488.41;;;9.77;96.51
55755;BME280;41674;52.290;-1.474;2022-10-16T08:54:58;100499.03;;;9.61;96.01
55755;BME280;41674;52.290;-1.474;2022-10-16T08:57:37;100506.30;;;9.51;98.49
55755;BME280;41674;52.290;-1.474;2022-10-16T09:00:00;100506.63;;;9.83;96.02
55755;BME280;41674;52.290;-1.474;2022-10-16T09:02:32;100502.59;;;10.24;94.67
55755;BME280;41674;52.290;-1.474;2022-10-16T09:05:03;100504.63;;;9.62;96.10
55755;BME280;41674;52.290;-1.474;2022-10-16T09:07:32;100511.98;;;9.82;93.44
55755;BME280;41674;52.290;-1.474;2022-10-16T09:10:08;100515.54;;;10.32;93.60
55755;BME280;41674;52.290;-1.474;2022-10-16T09:12:31;100520.71;;;9.59;95.52
55755;BME280;41674;52.290;-1.474;2022-10-16T09:15:03;100517.37;;;10.45;94.34
55755;BME280;41674;52.290;-1.474;2022-10-16T09:17:34;100519.60;;;11.00;94.50
55755;BME280;41674;52.290;-1.474;2022-10-16T09:20:01;100527.31;;;10.17;95.54
55755;BME280;41674;52.290;-1.474;2022-10-16T09:22:27;100532.39;;;10.32;93.19
55755;BME280;41674;52.290;-1.474;2022-10-16T09:24:54;100529.85;;;10.94;92.56
55755;BME280;41674;52.290;-1.474;2022-10-16T09:27:23;100530.78;;;11.17;89.95
55755;BME280;41674;52.290;-1.474;2022-10-16T09:29:54;100533.82;;;11.35;88.87
55755;BME280;41674;52.290;-1.474;2022-10-16T09:32:23;100535.46;;;10.96;87.95
55755;BME280;41674;52.290;-1.474;2022-10-16T09:34:55;100532.49;;;10.59;91.00
55755;BME280;41674;52.290;-1.474;2022-10-16T09:39:53;100530.14;;;10.58;87.61
55755;BME280;41674;52.290;-1.474;2022-10-16T09:44:52;100538.24;;;11.13;85.57
55755;BME280;41674;52.290;-1.474;2022-10-16T09:47:23;100539.13;;;11.40;82.86
55755;BME280;41674;52.290;-1.474;2022-10-16T09:49:52;100539.99;;;11.46;80.30
55755;BME280;41674;52.290;-1.474;2022-10-16T09:52:20;100537.83;;;11.12;78.20
55755;BME280;41674;52.290;-1.474;2022-10-16T09:54:50;100537.59;;;10.53;82.43
55755;BME280;41674;52.290;-1.474;2022-10-16T09:57:19;100531.67;;;10.56;78.77
55755;BME280;41674;52.290;-1.474;2022-10-16T09:59:49;100532.82;;;10.77;78.94
55755;BME280;41674;52.290;-1.474;2022-10-16T10:02:29;100529.71;;;10.47;78.00
55755;BME280;41674;52.290;-1.474;2022-10-16T10:04:50;100529.45;;;10.53;76.21
55755;BME280;41674;52.290;-1.474;2022-10-16T10:07:18;100531.08;;;11.19;74.23
55755;BME280;41674;52.290;-1.474;2022-10-16T10:09:47;100530.61;;;10.91;75.78
55755;BME280;41674;52.290;-1.474;2022-10-16T10:12:21;100533.76;;;10.63;75.68
55755;BME280;41674;52.290;-1.474;2022-10-16T10:14:47;100532.86;;;11.14;75.56
55755;BME280;41674;52.290;-1.474;2022-10-16T10:17:18;100530.12;;;11.16;75.35
55755;BME280;41674;52.290;-1.474;2022-10-16T10:19:50;100531.66;;;11.88;72.70
55755;BME280;41674;52.290;-1.474;2022-10-16T10:22:22;100536.62;;;12.15;72.18
55755;BME280;41674;52.290;-1.474;2022-10-16T10:24:44;100541.42;;;12.33;72.32
55755;BME280;41674;52.290;-1.474;2022-10-16T10:27:20;100546.55;;;12.15;71.37
55755;BME280;41674;52.290;-1.474;2022-10-16T10:29:52;100547.34;;;11.71;70.53
55755;BME280;41674;52.290;-1.474;2022-10-16T10:32:21;100546.39;;;12.44;69.65
55755;BME280;41674;52.290;-1.474;2022-10-16T10:34:53;100544.64;;;12.73;68.18
55755;BME280;41674;52.290;-1.474;2022-10-16T10:37:23;100546.83;;;12.94;67.18
55755;BME280;41674;52.290;-1.474;2022-10-16T10:39:46;100549.22;;;12.30;67.39
55755;BME280;41674;52.290;-1.474;2022-10-16T10:42:19;100547.33;;;12.38;66.64
55755;BME280;41674;52.290;-1.474;2022-10-16T10:44:55;100552.57;;;11.74;68.92
55755;BME280;41674;52.290;-1.474;2022-10-16T10:47:17;100555.27;;;12.40;67.11
55755;BME280;41674;52.290;-1.474;2022-10-16T10:49:50;100551.81;;;12.17;67.91
55755;BME280;41674;52.290;-1.474;2022-10-16T10:54:47;100550.25;;;11.79;61.98
55755;BME280;41674;52.290;-1.474;2022-10-16T10:57:12;100556.23;;;12.38;60.21
55755;BME280;41674;52.290;-1.474;2022-10-16T11:02:15;100554.90;;;12.58;62.31
55755;BME280;41674;52.290;-1.474;2022-10-16T11:04:54;100553.33;;;12.87;60.06
55755;BME280;41674;52.290;-1.474;2022-10-16T11:07:14;100550.75;;;13.45;58.93
55755;BME280;41674;52.290;-1.474;2022-10-16T11:09:39;100548.92;;;12.37;56.97
55755;BME280;41674;52.290;-1.474;2022-10-16T11:12:09;100548.59;;;12.77;58.40
55755;BME280;41674;52.290;-1.474;2022-10-16T11:14:40;100550.12;;;12.80;59.61
55755;BME280;41674;52.290;-1.474;2022-10-16T11:17:10;100545.80;;;12.59;59.63
55755;BME280;41674;52.290;-1.474;2022-10-16T11:19:39;100549.16;;;12.87;58.66
55755;BME280;41674;52.290;-1.474;2022-10-16T11:22:09;100549.27;;;13.28;59.32
55755;BME280;41674;52.290;-1.474;2022-10-16T11:24:40;100544.80;;;12.30;59.84
55755;BME280;41674;52.290;-1.474;2022-10-16T11:27:08;100545.00;;;13.95;57.76
55755;BME280;41674;52.290;-1.474;2022-10-16T11:29:35;100546.35;;;13.74;59.33
55755;BME280;41674;52.290;-1.474;2022-10-16T11:34:35;100535.09;;;14.27;58.97
55755;BME280;41674;52.290;-1.474;2022-10-16T11:37:08;100529.17;;;14.68;58.39
55755;BME280;41674;52.290;-1.474;2022-10-16T11:39:32;100535.20;;;14.23;60.16
55755;BME280;41674;52.290;-1.474;2022-10-16T11:42:05;100524.66;;;14.28;60.31
55755;BME280;41674;52.290;-1.474;2022-10-16T11:44:43;100528.55;;;13.95;58.96
55755;BME280;41674;52.290;-1.474;2022-10-16T11:47:13;100531.25;;;13.69;57.57
55755;BME280;41674;52.290;-1.474;2022-10-16T11:49:32;100531.26;;;14.17;58.83
55755;BME280;41674;52.290;-1.474;2022-10-16T11:52:06;100518.76;;;14.74;57.55
55755;BME280;41674;52.290;-1.474;2022-10-16T11:54:39;100514.62;;;14.50;56.97
55755;BME280;41674;52.290;-1.474;2022-10-16T11:57:03;100527.98;;;13.34;61.98
55755;BME280;41674;52.290;-1.474;2022-10-16T11:59:33;100524.31;;;13.87;57.76
55755;BME280;41674;52.290;-1.474;2022-10-16T12:02:11;100516.62;;;14.55;60.09
55755;BME280;41674;52.290;-1.474;2022-10-16T12:04:33;100516.70;;;14.63;57.06
55755;BME280;41674;52.290;-1.474;2022-10-16T12:07:01;100518.63;;;14.92;57.22
55755;BME280;41674;52.290;-1.474;2022-10-16T12:09:28;100520.15;;;15.63;55.20
55755;BME280;41674;52.290;-1.474;2022-10-16T12:11:57;100519.89;;;16.53;53.53
55755;BME280;41674;52.290;-1.474;2022-10-16T12:14:36;100525.12;;;16.49;52.82
55755;BME280;41674;52.290;-1.474;2022-10-16T12:16:56;100533.53;;;16.04;52.87
55755;BME280;41674;52.290;-1.474;2022-10-16T12:19:27;100525.96;;;16.65;53.37
55755;BME280;41674;52.290;-1.474;2022-10-16T12:22:01;100525.08;;;17.25;52.87
55755;BME280;41674;52.290;-1.474;2022-10-16T12:24:33;100520.81;;;16.41;48.90
55755;BME280;41674;52.290;-1.474;2022-10-16T12:26:53;100527.67;;;17.26;44.88
55755;BME280;41674;52.290;-1.474;2022-10-16T12:29:29;100525.70;;;16.93;46.92
55755;BME280;41674;52.290;-1.474;2022-10-16T12:31:52;100524.31;;;16.89;48.69
55755;BME280;41674;52.290;-1.474;2022-10-16T12:34:26;100522.58;;;18.54;46.18
55755;BME280;41674;52.290;-1.474;2022-10-16T12:36:51;100513.11;;;18.85;45.17
55755;BME280;41674;52.290;-1.474;2022-10-16T12:39:22;100515.11;;;19.77;42.04
55755;BME280;41674;52.290;-1.474;2022-10-16T12:42:01;100514.36;;;19.43;44.68
55755;BME280;41674;52.290;-1.474;2022-10-16T12:44:23;100517.03;;;20.58;42.95
55755;BME280;41674;52.290;-1.474;2022-10-16T12:46:49;100522.56;;;20.50;41.60
55755;BME280;41674;52.290;-1.474;2022-10-16T12:51:48;100518.13;;;20.50;40.98
55755;BME280;41674;52.290;-1.474;2022-10-16T12:54:20;100516.24;;;21.41;38.49
55755;BME280;41674;52.290;-1.474;2022-10-16T12:56:56;100519.37;;;20.03;39.13
55755;BME280;41674;52.290;-1.474;2022-10-16T12:59:25;100515.75;;;21.42;40.54
55755;BME280;41674;52.290;-1.474;2022-10-16T13:01:57;100520.65;;;21.91;38.04
55755;BME280;41674;52.290;-1.474;2022-10-16T13:04:35;100518.32;;;22.11;38.15
55755;BME280;41674;52.290;-1.474;2022-10-16T13:09:25;100521.78;;;20.01;40.24
55755;BME280;41674;52.290;-1.474;2022-10-16T13:11:57;100527.24;;;19.48;41.85
55755;BME280;41674;52.290;-1.474;2022-10-16T13:16:51;100512.45;;;19.79;42.80
55755;BME280;41674;52.290;-1.474;2022-10-16T13:19:21;100501.91;;;20.74;40.54
55755;BME280;41674;52.290;-1.474;2022-10-16T13:21:48;100504.61;;;19.70;42.29
55755;BME280;41674;52.290;-1.474;2022-10-16T13:24:29;100498.51;;;19.49;43.74
55755;BME280;41674;52.290;-1.474;2022-10-16T13:26:46;100500.67;;;19.95;41.90
55755;BME280;41674;52.290;-1.474;2022-10-16T13:29:12;100492.62;;;21.26;40.68